Weather at Beaumont Hotel Airport

Public forecast

Using degrees Fahrenheit for public forecast. Weather courtesy of forecast.io.

Closest aviation weather report (METAR) to Beaumont Hotel Airport

Closest report is Captain Jack Thomas El Dorado Airport, 15.4 nm (28.6 km) WNW. Retrieved 2020/09/23 22:15 UTC (0 seconds ago):

KEQA 232215Z AUTO 17006KT 10SM CLR 26/14 A2998 RMK AO2

Closest aviation forecast (TAF) to Beaumont Hotel Airport

Closest forecast is Mc Connell Air Force Base, 35.3 nm (65.4 km) W. Retrieved 2020/09/23 18:09 UTC (4 hours ago):

TAF KIAB 231800Z 2318/2424 VRB06KT 9999 SCT013 OVC025 QNH3000INS BECMG 2321/2322 VRB06KT 9999 SCT035 QNH2995INS BECMG 2409/2410 VRB06KT 8000 BR SCT004 QNH2997INS BECMG 2414/2415 18010G15KT 9999 NSW SKC QNH2989INS TX24/2320Z TN16/2412Z